createdAt,value
2023-07-24T00:03:47.066Z,17.00
2023-07-24T00:07:48.567Z,17.26
2023-07-24T00:11:50.061Z,17.39
2023-07-24T00:15:51.675Z,17.23
2023-07-24T00:19:53.202Z,17.77
2023-07-24T00:23:54.709Z,17.35
2023-07-24T00:27:56.225Z,17.30
2023-07-24T00:31:57.738Z,17.25
2023-07-24T00:35:59.269Z,17.28
2023-07-24T00:40:00.754Z,17.38
2023-07-24T00:44:02.255Z,17.31
2023-07-24T00:48:03.943Z,17.02
2023-07-24T00:52:05.983Z,17.05
2023-07-24T00:56:07.945Z,16.87
2023-07-24T01:00:10.168Z,17.00
2023-07-24T01:04:12.005Z,16.97
2023-07-24T01:08:13.534Z,16.58
2023-07-24T01:12:23.768Z,17.16
2023-07-24T01:16:31.513Z,17.05
2023-07-24T01:20:37.284Z,17.24
2023-07-24T01:25:02.140Z,17.23
2023-07-24T01:29:03.623Z,17.12
2023-07-24T01:33:05.204Z,17.00
2023-07-24T01:37:07.085Z,16.93
2023-07-24T01:41:08.729Z,17.08
2023-07-24T01:45:13.158Z,16.87
2023-07-24T01:49:14.673Z,16.55
2023-07-24T01:53:19.321Z,16.86
2023-07-24T01:57:20.907Z,16.96
2023-07-24T02:01:22.462Z,17.35
2023-07-24T02:05:24.133Z,17.00
2023-07-24T02:09:25.717Z,16.85
2023-07-24T02:13:27.230Z,16.77
2023-07-24T02:17:28.806Z,16.59
2023-07-24T02:21:30.983Z,16.81
2023-07-24T02:25:32.493Z,16.71
2023-07-24T02:29:34.536Z,16.81
2023-07-24T02:33:36.019Z,16.90
2023-07-24T02:37:37.516Z,16.65
2023-07-24T02:41:39.061Z,16.60
2023-07-24T02:45:40.575Z,16.93
2023-07-24T02:49:42.123Z,16.58
2023-07-24T02:53:43.617Z,16.40
2023-07-24T02:57:45.197Z,16.50
2023-07-24T03:01:46.705Z,16.60
2023-07-24T03:05:48.197Z,16.81
2023-07-24T03:09:51.886Z,16.67
2023-07-24T03:13:53.374Z,16.64
2023-07-24T03:17:54.966Z,16.76
2023-07-24T03:21:56.531Z,17.04
2023-07-24T03:25:58.255Z,16.96
2023-07-24T03:29:59.695Z,16.66
2023-07-24T03:34:01.314Z,16.91
2023-07-24T03:38:02.808Z,17.35
2023-07-24T03:42:04.657Z,17.02
2023-07-24T03:46:06.134Z,17.13
2023-07-24T03:50:07.943Z,17.29
2023-07-24T03:54:09.408Z,17.22
2023-07-24T03:58:10.854Z,17.29
2023-07-24T04:02:12.372Z,17.30
2023-07-24T04:06:13.861Z,17.22
2023-07-24T04:10:15.399Z,17.28
2023-07-24T04:14:16.848Z,17.61
2023-07-24T04:18:18.341Z,18.37
2023-07-24T04:22:19.855Z,18.97
2023-07-24T04:26:21.452Z,20.06
2023-07-24T04:30:22.959Z,20.28
2023-07-24T04:34:24.446Z,20.91
2023-07-24T04:38:26.103Z,22.00
2023-07-24T04:42:27.688Z,21.40
2023-07-24T04:46:29.589Z,22.41
2023-07-24T04:50:31.407Z,23.14
2023-07-24T04:54:32.855Z,23.84
2023-07-24T04:58:34.400Z,23.55
2023-07-24T05:02:35.858Z,23.14
2023-07-24T05:06:39.373Z,24.98
2023-07-24T05:10:40.990Z,24.88
2023-07-24T05:14:42.497Z,23.81
2023-07-24T05:18:44.023Z,23.00
2023-07-24T05:22:45.689Z,21.61
2023-07-24T05:26:47.340Z,22.63
2023-07-24T05:30:48.796Z,21.87
2023-07-24T05:34:50.268Z,21.07
2023-07-24T05:38:53.846Z,20.36
2023-07-24T05:42:55.368Z,20.36
2023-07-24T05:46:56.832Z,20.57
2023-07-24T05:50:58.277Z,19.95
2023-07-24T05:54:59.748Z,19.81
2023-07-24T05:59:01.221Z,19.70
2023-07-24T06:03:04.486Z,19.52
2023-07-24T06:07:07.712Z,19.93
2023-07-24T06:11:09.246Z,20.19
2023-07-24T06:15:10.927Z,20.26
2023-07-24T06:19:12.356Z,20.60
2023-07-24T06:23:13.805Z,21.38
2023-07-24T06:27:15.844Z,21.32
2023-07-24T06:31:19.062Z,21.53
2023-07-24T06:35:20.682Z,21.20
2023-07-24T06:39:22.158Z,21.94
2023-07-24T06:43:23.695Z,21.62
2023-07-24T06:47:25.892Z,21.51
2023-07-24T06:51:27.463Z,21.78
2023-07-24T06:55:28.967Z,21.99
2023-07-24T06:59:30.512Z,22.61
2023-07-24T07:03:32.096Z,22.37
2023-07-24T07:07:33.628Z,22.51
2023-07-24T07:11:35.135Z,22.46
2023-07-24T07:15:37.582Z,21.58
2023-07-24T07:19:39.146Z,21.18
2023-07-24T07:23:40.659Z,20.86
2023-07-24T07:27:42.334Z,20.98
2023-07-24T07:31:43.819Z,20.91
2023-07-24T07:35:45.300Z,20.68
2023-07-24T07:39:47.108Z,21.37
2023-07-24T07:43:48.589Z,21.13
2023-07-24T07:47:50.334Z,21.63
2023-07-24T07:51:51.809Z,22.11
2023-07-24T07:56:00.866Z,22.74
2023-07-24T08:00:09.134Z,21.55
2023-07-24T08:04:10.593Z,22.32
2023-07-24T08:08:12.085Z,22.61
2023-07-24T08:12:13.528Z,22.79
2023-07-24T08:16:21.910Z,22.30
2023-07-24T08:20:23.484Z,21.64
2023-07-24T08:24:25.134Z,22.12
2023-07-24T08:28:26.723Z,22.70
2023-07-24T08:32:28.329Z,23.48
2023-07-24T08:36:30.494Z,23.25
2023-07-24T08:40:32.197Z,22.90
2023-07-24T08:44:33.765Z,22.39
2023-07-24T08:48:42.835Z,22.15
2023-07-24T08:52:45.963Z,22.63
2023-07-24T08:56:51.209Z,22.86
2023-07-24T09:00:52.886Z,22.57
2023-07-24T09:04:54.529Z,22.91
2023-07-24T09:08:56.224Z,22.94
2023-07-24T09:12:57.967Z,22.54
2023-07-24T09:17:06.745Z,22.78
2023-07-24T09:21:08.692Z,22.28
2023-07-24T09:25:10.634Z,22.83
2023-07-24T09:29:12.336Z,22.57
2023-07-24T09:33:15.131Z,22.43
2023-07-24T09:37:31.605Z,22.11
2023-07-24T09:41:33.294Z,22.23
2023-07-24T09:45:36.475Z,22.38
2023-07-24T09:49:38.562Z,21.86
2023-07-24T09:53:47.947Z,21.93
2023-07-24T09:57:53.162Z,21.80
2023-07-24T10:01:55.412Z,22.05
2023-07-24T10:05:56.992Z,21.74
2023-07-24T10:09:59.478Z,21.84
2023-07-24T10:14:02.245Z,22.32
2023-07-24T10:18:06.111Z,22.12
2023-07-24T10:22:08.288Z,22.19
2023-07-24T10:26:10.425Z,21.03
2023-07-24T10:30:27.515Z,21.26
2023-07-24T10:34:40.026Z,21.28
2023-07-24T10:38:42.958Z,21.05
2023-07-24T10:42:44.430Z,21.51
2023-07-24T10:46:45.941Z,21.05
2023-07-24T10:50:54.338Z,20.85
2023-07-24T10:54:56.744Z,20.88
2023-07-24T10:59:03.665Z,21.22
2023-07-24T11:03:05.258Z,21.54
2023-07-24T11:07:06.767Z,21.88
2023-07-24T11:11:09.207Z,22.29
2023-07-24T11:15:11.539Z,22.36
2023-07-24T11:19:12.990Z,22.13
2023-07-24T11:23:15.137Z,22.28
2023-07-24T11:27:18.234Z,22.13
2023-07-24T11:31:22.994Z,21.94
2023-07-24T11:35:26.574Z,21.92
2023-07-24T11:39:28.134Z,22.14
2023-07-24T11:43:29.633Z,21.74
2023-07-24T11:47:31.260Z,21.66
2023-07-24T11:51:34.543Z,22.71
2023-07-24T11:55:36.535Z,23.17
2023-07-24T11:59:39.647Z,22.73
2023-07-24T12:03:42.310Z,23.71
2023-07-24T12:07:45.128Z,23.66
2023-07-24T12:11:47.550Z,24.27
2023-07-24T12:15:49.556Z,24.23
2023-07-24T12:19:51.123Z,24.20
2023-07-24T12:23:52.577Z,24.23
2023-07-24T12:27:54.197Z,23.96
2023-07-24T12:31:55.776Z,23.61
2023-07-24T12:35:57.241Z,24.21
2023-07-24T12:39:58.851Z,24.58
2023-07-24T12:44:01.025Z,24.75
2023-07-24T12:48:02.901Z,24.38
2023-07-24T12:52:05.239Z,24.38
2023-07-24T12:56:06.838Z,24.15
2023-07-24T13:00:10.050Z,25.18
2023-07-24T13:04:11.908Z,25.10
2023-07-24T13:08:13.468Z,23.85
2023-07-24T13:12:15.055Z,24.16
2023-07-24T13:16:17.412Z,23.43
2023-07-24T13:20:19.017Z,24.05
2023-07-24T13:24:20.585Z,23.42
2023-07-24T13:28:22.207Z,22.69
2023-07-24T13:32:23.903Z,22.69
2023-07-24T13:36:25.362Z,22.49
2023-07-24T13:40:27.350Z,22.86
2023-07-24T13:44:28.880Z,22.35
2023-07-24T13:48:31.486Z,22.18
2023-07-24T13:52:33.029Z,21.60
2023-07-24T13:56:36.736Z,22.21
2023-07-24T14:00:38.314Z,21.91
2023-07-24T14:04:39.875Z,22.01
2023-07-24T14:08:41.368Z,21.44
2023-07-24T14:12:42.905Z,21.64
2023-07-24T14:16:44.471Z,21.95
2023-07-24T14:20:46.520Z,22.51
2023-07-24T14:24:48.100Z,22.64
2023-07-24T14:28:49.657Z,22.75
2023-07-24T14:32:51.759Z,22.70
2023-07-24T14:36:53.932Z,22.51
2023-07-24T14:40:55.443Z,22.79
2023-07-24T14:45:02.607Z,22.73
2023-07-24T14:49:04.479Z,23.56
2023-07-24T14:53:05.953Z,23.95
2023-07-24T14:57:19.061Z,23.47
2023-07-24T15:01:24.871Z,23.19
2023-07-24T15:05:26.385Z,23.66
2023-07-24T15:09:27.845Z,23.83
2023-07-24T15:13:29.415Z,22.76
2023-07-24T15:17:31.359Z,22.75
2023-07-24T15:21:33.173Z,22.66
2023-07-24T15:25:34.978Z,23.31
2023-07-24T15:29:39.714Z,24.24
2023-07-24T15:33:41.316Z,24.22
2023-07-24T15:37:44.718Z,24.59
2023-07-24T15:41:46.261Z,24.66
2023-07-24T15:45:47.825Z,24.58
2023-07-24T15:49:49.561Z,24.03
2023-07-24T15:53:51.414Z,24.33
2023-07-24T15:57:52.939Z,23.80
2023-07-24T16:01:55.374Z,23.15
2023-07-24T16:05:56.841Z,22.66
2023-07-24T16:09:58.288Z,23.04
2023-07-24T16:13:59.771Z,23.73
2023-07-24T16:22:05.792Z,23.59
2023-07-24T16:26:07.259Z,23.51
2023-07-24T16:30:11.902Z,24.04
2023-07-24T16:34:17.643Z,24.44
2023-07-24T16:38:19.313Z,24.21
2023-07-24T16:42:20.845Z,24.02
2023-07-24T16:46:26.375Z,23.58
2023-07-24T16:50:30.444Z,23.84
2023-07-24T16:54:32.022Z,23.50
2023-07-24T16:58:33.530Z,23.26
2023-07-24T17:02:36.725Z,23.14
2023-07-24T17:06:38.636Z,23.10
2023-07-24T17:10:43.761Z,23.03
2023-07-24T17:14:45.224Z,22.19
2023-07-24T17:18:46.918Z,20.67
2023-07-24T17:22:48.473Z,19.71
2023-07-24T17:26:49.958Z,19.10
2023-07-24T17:30:52.195Z,19.15
2023-07-24T17:34:53.853Z,18.81
2023-07-24T17:38:56.360Z,18.97
2023-07-24T17:42:57.940Z,19.65
2023-07-24T17:46:59.439Z,19.67
2023-07-24T17:51:01.284Z,19.49
2023-07-24T17:55:03.780Z,18.17
2023-07-24T17:59:05.251Z,16.83
2023-07-24T18:03:06.910Z,17.01
2023-07-24T18:07:08.513Z,17.05
2023-07-24T18:11:10.054Z,17.40
2023-07-24T18:15:11.680Z,17.71
2023-07-24T18:19:13.274Z,17.64
2023-07-24T18:23:14.783Z,17.77
2023-07-24T18:27:16.363Z,17.53
2023-07-24T18:31:19.836Z,18.09
2023-07-24T18:35:21.590Z,18.37
2023-07-24T18:39:23.132Z,17.86
2023-07-24T18:43:24.706Z,17.48
2023-07-24T18:47:26.205Z,17.72
2023-07-24T18:51:27.813Z,17.56
2023-07-24T18:55:29.583Z,18.02
2023-07-24T18:59:31.154Z,17.78
2023-07-24T19:03:32.683Z,17.97
2023-07-24T19:07:34.153Z,18.39
2023-07-24T19:11:35.797Z,18.58
2023-07-24T19:15:37.403Z,18.49
2023-07-24T19:19:39.316Z,18.30
2023-07-24T19:23:40.812Z,18.19
2023-07-24T19:27:42.365Z,18.28
2023-07-24T19:31:44.162Z,17.76
2023-07-24T19:35:45.766Z,18.32
2023-07-24T19:39:47.281Z,18.32
2023-07-24T19:43:48.781Z,18.12
2023-07-24T19:47:50.424Z,17.85
2023-07-24T19:51:52.129Z,18.10
2023-07-24T19:55:54.283Z,18.26
2023-07-24T19:59:55.762Z,18.32
2023-07-24T20:03:57.257Z,17.50
2023-07-24T20:07:58.738Z,18.06
2023-07-24T20:12:00.341Z,17.62
2023-07-24T20:16:02.321Z,18.03
2023-07-24T20:20:04.296Z,17.83
2023-07-24T20:24:10.751Z,17.72
2023-07-24T20:28:13.215Z,18.09
2023-07-24T20:32:15.056Z,17.85
2023-07-24T20:36:16.654Z,18.10
2023-07-24T20:40:18.357Z,18.21
2023-07-24T20:44:19.821Z,18.35
2023-07-24T20:48:25.664Z,18.08
2023-07-24T20:52:27.352Z,17.61
2023-07-24T20:56:29.183Z,17.90
2023-07-24T21:00:30.658Z,17.94
2023-07-24T21:04:32.788Z,17.42
2023-07-24T21:08:34.272Z,17.92
2023-07-24T21:12:36.287Z,17.78
2023-07-24T21:16:39.125Z,18.02
2023-07-24T21:20:42.360Z,18.01
2023-07-24T21:24:43.912Z,17.53
2023-07-24T21:28:45.408Z,17.71
2023-07-24T21:32:47.273Z,17.60
2023-07-24T21:36:49.027Z,17.37
2023-07-24T21:40:51.182Z,17.04
2023-07-24T21:44:52.954Z,17.26
2023-07-24T21:48:54.488Z,16.86
2023-07-24T21:52:56.053Z,17.10
2023-07-24T21:56:57.521Z,17.06
2023-07-24T22:00:59.107Z,17.16
2023-07-24T22:05:00.688Z,17.24
2023-07-24T22:09:02.191Z,17.52
2023-07-24T22:13:03.732Z,17.26
2023-07-24T22:17:06.034Z,16.95
2023-07-24T22:21:07.578Z,17.03
2023-07-24T22:25:09.611Z,16.93
2023-07-24T22:29:11.115Z,17.07
2023-07-24T22:33:13.063Z,17.04
2023-07-24T22:37:14.574Z,17.49
2023-07-24T22:41:16.065Z,17.03
2023-07-24T22:45:17.716Z,17.14
2023-07-24T22:49:19.233Z,17.05
2023-07-24T22:53:22.078Z,16.87
2023-07-24T22:57:24.068Z,16.82
2023-07-24T23:01:28.805Z,17.05
2023-07-24T23:05:33.784Z,17.03
2023-07-24T23:09:35.397Z,17.03
2023-07-24T23:13:37.038Z,16.88
2023-07-24T23:17:38.664Z,16.40
2023-07-24T23:21:40.170Z,16.93
2023-07-24T23:25:41.635Z,16.93
2023-07-24T23:29:43.106Z,17.12
2023-07-24T23:33:44.799Z,17.13
2023-07-24T23:37:46.393Z,16.70
2023-07-24T23:41:47.954Z,16.62
2023-07-24T23:45:49.456Z,16.60
2023-07-24T23:49:50.958Z,16.57
2023-07-24T23:53:52.453Z,16.26
2023-07-24T23:57:53.894Z,16.66
